sensor_id;sensor_type;location;lat;lon;timestamp;pressure;altitude;pressure_sealevel;temperature;humidity
57000;BME280;42891;50.006;21.964;2023-05-21T00:02:50;51052.78;;;-146.02;66.34
57000;BME280;42891;50.006;21.964;2023-05-21T00:06:50;51060.78;;;-146.02;65.83
57000;BME280;42891;50.006;21.964;2023-05-21T00:10:51;51072.81;;;-146.02;66.02
57000;BME280;42891;50.006;21.964;2023-05-21T00:14:51;51066.81;;;-146.02;65.90
57000;BME280;42891;50.006;21.964;2023-05-21T00:18:51;51046.78;;;-146.02;66.44
57000;BME280;42891;50.006;21.964;2023-05-21T00:22:53;51062.81;;;-146.02;66.61
57000;BME280;42891;50.006;21.964;2023-05-21T00:26:54;51064.81;;;-146.02;66.44
57000;BME280;42891;50.006;21.964;2023-05-21T00:30:55;51066.81;;;-146.02;66.68
57000;BME280;42891;50.006;21.964;2023-05-21T00:34:55;51064.81;;;-146.02;66.44
57000;BME280;42891;50.006;21.964;2023-05-21T00:38:57;51064.81;;;-146.02;66.93
57000;BME280;42891;50.006;21.964;2023-05-21T00:42:57;51042.75;;;-146.02;66.51
57000;BME280;42891;50.006;21.964;2023-05-21T00:46:57;51050.78;;;-146.02;66.61
57000;BME280;42891;50.006;21.964;2023-05-21T00:50:58;51082.84;;;-146.02;66.50
57000;BME280;42891;50.006;21.964;2023-05-21T00:54:58;51076.81;;;-146.02;66.28
57000;BME280;42891;50.006;21.964;2023-05-21T00:58:59;51040.75;;;-146.02;66.13
57000;BME280;42891;50.006;21.964;2023-05-21T01:03:04;51038.75;;;-146.02;66.74
57000;BME280;42891;50.006;21.964;2023-05-21T01:07:05;51062.81;;;-146.02;66.68
57000;BME280;42891;50.006;21.964;2023-05-21T01:11:06;51070.81;;;-146.02;67.36
57000;BME280;42891;50.006;21.964;2023-05-21T01:15:07;51044.78;;;-146.02;67.21
57000;BME280;42891;50.006;21.964;2023-05-21T01:19:10;51078.84;;;-146.02;66.97
57000;BME280;42891;50.006;21.964;2023-05-21T01:23:15;51056.78;;;-146.02;67.24
57000;BME280;42891;50.006;21.964;2023-05-21T01:27:16;51052.78;;;-146.02;66.77
57000;BME280;42891;50.006;21.964;2023-05-21T01:36:11;51086.84;;;-146.02;66.81
57000;BME280;42891;50.006;21.964;2023-05-21T01:40:35;51048.78;;;-146.02;66.28
57000;BME280;42891;50.006;21.964;2023-05-21T01:44:38;51088.84;;;-146.02;65.99
57000;BME280;42891;50.006;21.964;2023-05-21T01:48:40;51068.81;;;-146.02;66.31
57000;BME280;42891;50.006;21.964;2023-05-21T01:52:52;51050.78;;;-146.02;66.21
57000;BME280;42891;50.006;21.964;2023-05-21T01:56:53;51032.75;;;-146.02;66.62
57000;BME280;42891;50.006;21.964;2023-05-21T02:00:54;51058.78;;;-146.02;66.71
57000;BME280;42891;50.006;21.964;2023-05-21T02:04:56;51064.81;;;-146.02;67.04
57000;BME280;42891;50.006;21.964;2023-05-21T02:08:56;51072.81;;;-146.02;67.01
57000;BME280;42891;50.006;21.964;2023-05-21T02:12:56;51050.78;;;-146.02;67.11
57000;BME280;42891;50.006;21.964;2023-05-21T02:16:59;51078.84;;;-146.02;67.35
57000;BME280;42891;50.006;21.964;2023-05-21T02:20:59;51074.81;;;-146.02;67.71
57000;BME280;42891;50.006;21.964;2023-05-21T02:25:00;51074.81;;;-146.02;67.60
57000;BME280;42891;50.006;21.964;2023-05-21T02:29:00;51076.81;;;-146.02;67.93
57000;BME280;42891;50.006;21.964;2023-05-21T02:33:00;51058.78;;;-146.02;67.66
57000;BME280;42891;50.006;21.964;2023-05-21T02:37:01;51070.81;;;-146.02;67.48
57000;BME280;42891;50.006;21.964;2023-05-21T02:41:02;51070.81;;;-146.02;67.39
57000;BME280;42891;50.006;21.964;2023-05-21T02:45:02;51042.75;;;-146.02;67.19
57000;BME280;42891;50.006;21.964;2023-05-21T02:49:03;51104.88;;;-146.02;67.37
57000;BME280;42891;50.006;21.964;2023-05-21T02:53:03;51084.84;;;-146.02;68.16
57000;BME280;42891;50.006;21.964;2023-05-21T02:57:03;51068.81;;;-146.02;68.29
57000;BME280;42891;50.006;21.964;2023-05-21T03:01:04;51092.84;;;-146.02;68.37
57000;BME280;42891;50.006;21.964;2023-05-21T03:05:04;51092.84;;;-146.02;68.56
57000;BME280;42891;50.006;21.964;2023-05-21T03:09:05;51106.88;;;-146.02;68.31
57000;BME280;42891;50.006;21.964;2023-05-21T03:13:05;51106.88;;;-146.02;68.37
57000;BME280;42891;50.006;21.964;2023-05-21T03:17:06;51064.81;;;-146.02;68.45
57000;BME280;42891;50.006;21.964;2023-05-21T03:21:06;51056.78;;;-146.02;68.50
57000;BME280;42891;50.006;21.964;2023-05-21T03:25:07;51110.91;;;-146.02;68.66
57000;BME280;42891;50.006;21.964;2023-05-21T03:29:08;51114.91;;;-146.02;68.76
57000;BME280;42891;50.006;21.964;2023-05-21T03:33:08;51068.81;;;-146.02;69.16
57000;BME280;42891;50.006;21.964;2023-05-21T03:37:10;51044.78;;;-146.02;69.26
57000;BME280;42891;50.006;21.964;2023-05-21T03:41:11;51110.91;;;-146.02;69.49
57000;BME280;42891;50.006;21.964;2023-05-21T03:45:11;51112.91;;;-146.02;70.34
57000;BME280;42891;50.006;21.964;2023-05-21T03:49:12;51108.88;;;-146.02;70.82
57000;BME280;42891;50.006;21.964;2023-05-21T03:53:13;51084.84;;;-146.02;71.16
57000;BME280;42891;50.006;21.964;2023-05-21T03:57:13;51052.78;;;-146.02;70.78
57000;BME280;42891;50.006;21.964;2023-05-21T04:01:14;51086.84;;;-146.02;70.65
57000;BME280;42891;50.006;21.964;2023-05-21T04:05:14;51074.81;;;-146.02;71.12
57000;BME280;42891;50.006;21.964;2023-05-21T04:09:14;51058.78;;;-146.02;70.82
57000;BME280;42891;50.006;21.964;2023-05-21T04:13:15;51062.81;;;-146.02;70.62
57000;BME280;42891;50.006;21.964;2023-05-21T04:17:15;51106.88;;;-146.02;70.78
57000;BME280;42891;50.006;21.964;2023-05-21T04:21:18;51080.84;;;-146.02;70.94
57000;BME280;42891;50.006;21.964;2023-05-21T04:25:18;51082.84;;;-146.02;70.31
57000;BME280;42891;50.006;21.964;2023-05-21T04:29:20;51056.78;;;-146.02;69.86
57000;BME280;42891;50.006;21.964;2023-05-21T04:33:21;51082.84;;;-146.02;69.19
57000;BME280;42891;50.006;21.964;2023-05-21T04:37:22;51060.78;;;-146.02;68.38
57000;BME280;42891;50.006;21.964;2023-05-21T04:41:25;51090.84;;;-146.02;67.04
57000;BME280;42891;50.006;21.964;2023-05-21T04:45:26;51082.84;;;-146.02;67.19
57000;BME280;42891;50.006;21.964;2023-05-21T04:49:26;51070.81;;;-146.02;67.72
57000;BME280;42891;50.006;21.964;2023-05-21T04:53:26;51072.81;;;-146.02;67.26
57000;BME280;42891;50.006;21.964;2023-05-21T04:57:28;51060.78;;;-146.02;66.28
57000;BME280;42891;50.006;21.964;2023-05-21T05:01:28;51052.78;;;-146.02;66.33
57000;BME280;42891;50.006;21.964;2023-05-21T05:05:31;51074.81;;;-146.02;66.71
57000;BME280;42891;50.006;21.964;2023-05-21T05:09:31;51054.78;;;-146.02;66.40
57000;BME280;42891;50.006;21.964;2023-05-21T05:13:33;51048.78;;;-146.02;66.16
57000;BME280;42891;50.006;21.964;2023-05-21T05:17:33;51062.81;;;-146.02;65.89
57000;BME280;42891;50.006;21.964;2023-05-21T05:21:34;51034.75;;;-146.02;65.67
57000;BME280;42891;50.006;21.964;2023-05-21T05:25:34;51048.78;;;-146.02;64.56
57000;BME280;42891;50.006;21.964;2023-05-21T05:29:35;51040.75;;;-146.02;64.49
57000;BME280;42891;50.006;21.964;2023-05-21T05:33:36;51052.78;;;-146.02;63.44
57000;BME280;42891;50.006;21.964;2023-05-21T05:37:36;51030.75;;;-146.02;63.47
57000;BME280;42891;50.006;21.964;2023-05-21T05:41:37;51048.78;;;-146.02;63.77
57000;BME280;42891;50.006;21.964;2023-05-21T05:45:37;51032.75;;;-146.02;63.06
57000;BME280;42891;50.006;21.964;2023-05-21T05:49:37;51074.81;;;-146.02;63.10
57000;BME280;42891;50.006;21.964;2023-05-21T05:53:38;51042.75;;;-146.02;62.33
57000;BME280;42891;50.006;21.964;2023-05-21T05:57:38;51004.69;;;-146.02;62.46
57000;BME280;42891;50.006;21.964;2023-05-21T06:01:38;51058.78;;;-146.02;62.25
57000;BME280;42891;50.006;21.964;2023-05-21T06:05:39;51046.78;;;-146.02;61.89
57000;BME280;42891;50.006;21.964;2023-05-21T06:09:39;51084.84;;;-146.02;61.59
57000;BME280;42891;50.006;21.964;2023-05-21T06:13:39;51032.75;;;-146.02;61.92
57000;BME280;42891;50.006;21.964;2023-05-21T06:17:40;51016.72;;;-146.02;62.09
57000;BME280;42891;50.006;21.964;2023-05-21T06:21:40;51008.69;;;-146.02;62.34
57000;BME280;42891;50.006;21.964;2023-05-21T06:25:41;51064.81;;;-146.02;61.68
57000;BME280;42891;50.006;21.964;2023-05-21T06:29:41;51048.78;;;-146.02;62.31
57000;BME280;42891;50.006;21.964;2023-05-21T06:33:41;51030.75;;;-146.02;62.64
57000;BME280;42891;50.006;21.964;2023-05-21T06:37:41;51046.78;;;-146.02;62.86
57000;BME280;42891;50.006;21.964;2023-05-21T06:41:42;51078.84;;;-146.02;62.08
57000;BME280;42891;50.006;21.964;2023-05-21T06:45:42;51034.75;;;-146.02;62.34
57000;BME280;42891;50.006;21.964;2023-05-21T06:49:42;51066.81;;;-146.02;61.48
57000;BME280;42891;50.006;21.964;2023-05-21T06:53:43;51024.72;;;-146.02;61.81
57000;BME280;42891;50.006;21.964;2023-05-21T06:57:43;51020.72;;;-146.02;61.49
57000;BME280;42891;50.006;21.964;2023-05-21T07:01:43;51022.72;;;-146.02;61.75
57000;BME280;42891;50.006;21.964;2023-05-21T07:05:44;51000.69;;;-146.02;60.93
57000;BME280;42891;50.006;21.964;2023-05-21T07:09:44;51016.72;;;-146.02;60.39
57000;BME280;42891;50.006;21.964;2023-05-21T07:13:44;51010.72;;;-146.02;61.39
57000;BME280;42891;50.006;21.964;2023-05-21T07:17:45;50994.69;;;-146.02;61.34
57000;BME280;42891;50.006;21.964;2023-05-21T07:21:45;50998.69;;;-146.02;60.33
57000;BME280;42891;50.006;21.964;2023-05-21T07:25:46;51062.81;;;-146.02;60.81
57000;BME280;42891;50.006;21.964;2023-05-21T07:29:46;51022.72;;;-146.02;60.13
57000;BME280;42891;50.006;21.964;2023-05-21T07:33:47;50978.66;;;-146.02;59.88
57000;BME280;42891;50.006;21.964;2023-05-21T07:37:47;51012.72;;;-146.02;58.77
57000;BME280;42891;50.006;21.964;2023-05-21T07:41:47;50984.66;;;-146.02;58.47
57000;BME280;42891;50.006;21.964;2023-05-21T07:45:48;50984.66;;;-146.02;57.99
57000;BME280;42891;50.006;21.964;2023-05-21T07:49:48;50984.66;;;-146.02;58.50
57000;BME280;42891;50.006;21.964;2023-05-21T07:53:48;50992.66;;;-146.02;57.10
57000;BME280;42891;50.006;21.964;2023-05-21T07:57:49;50980.66;;;-146.02;56.89
57000;BME280;42891;50.006;21.964;2023-05-21T08:01:51;50952.59;;;-146.02;57.39
57000;BME280;42891;50.006;21.964;2023-05-21T08:05:51;50964.63;;;-146.02;56.85
57000;BME280;42891;50.006;21.964;2023-05-21T08:09:52;50998.69;;;-146.02;55.52
57000;BME280;42891;50.006;21.964;2023-05-21T08:13:53;50982.66;;;-146.02;56.31
57000;BME280;42891;50.006;21.964;2023-05-21T08:17:54;50982.66;;;-146.02;56.32
57000;BME280;42891;50.006;21.964;2023-05-21T08:21:54;51012.72;;;-146.02;54.60
57000;BME280;42891;50.006;21.964;2023-05-21T08:25:54;51004.69;;;-146.02;53.75
57000;BME280;42891;50.006;21.964;2023-05-21T08:29:55;50996.69;;;-146.02;51.75
57000;BME280;42891;50.006;21.964;2023-05-21T08:33:55;50958.59;;;-146.02;52.30
57000;BME280;42891;50.006;21.964;2023-05-21T08:37:55;51002.69;;;-146.02;51.22
57000;BME280;42891;50.006;21.964;2023-05-21T08:42:01;50988.66;;;-146.02;51.97
57000;BME280;42891;50.006;21.964;2023-05-21T08:46:03;50956.59;;;-146.02;50.96
57000;BME280;42891;50.006;21.964;2023-05-21T08:50:04;50966.63;;;-146.02;50.61
57000;BME280;42891;50.006;21.964;2023-05-21T08:54:06;50958.59;;;-146.02;50.15
57000;BME280;42891;50.006;21.964;2023-05-21T08:58:07;50946.59;;;-146.02;51.30
57000;BME280;42891;50.006;21.964;2023-05-21T09:02:11;50990.66;;;-146.02;50.63
57000;BME280;42891;50.006;21.964;2023-05-21T09:06:12;50936.56;;;-146.02;51.49
57000;BME280;42891;50.006;21.964;2023-05-21T09:10:13;50928.56;;;-146.02;51.19
57000;BME280;42891;50.006;21.964;2023-05-21T09:14:18;50938.56;;;-146.02;50.58
57000;BME280;42891;50.006;21.964;2023-05-21T09:18:18;50974.63;;;-146.02;51.44
57000;BME280;42891;50.006;21.964;2023-05-21T09:22:22;50924.53;;;-146.02;50.83
57000;BME280;42891;50.006;21.964;2023-05-21T09:26:23;50938.56;;;-146.02;49.46
57000;BME280;42891;50.006;21.964;2023-05-21T09:30:24;50928.56;;;-146.02;48.90
57000;BME280;42891;50.006;21.964;2023-05-21T09:34:24;50924.53;;;-146.02;49.44
57000;BME280;42891;50.006;21.964;2023-05-21T09:38:25;50978.66;;;-146.02;47.02
57000;BME280;42891;50.006;21.964;2023-05-21T09:42:28;50910.53;;;-146.02;47.78
57000;BME280;42891;50.006;21.964;2023-05-21T09:46:39;50968.63;;;-146.02;48.81
57000;BME280;42891;50.006;21.964;2023-05-21T09:50:39;50948.59;;;-146.02;47.03
57000;BME280;42891;50.006;21.964;2023-05-21T09:54:40;50932.56;;;-146.02;46.87
57000;BME280;42891;50.006;21.964;2023-05-21T09:58:40;50938.56;;;-146.02;45.92
57000;BME280;42891;50.006;21.964;2023-05-21T10:02:42;50946.59;;;-146.02;45.93
57000;BME280;42891;50.006;21.964;2023-05-21T10:06:45;50924.53;;;-146.02;44.53
57000;BME280;42891;50.006;21.964;2023-05-21T10:10:48;50950.59;;;-146.02;45.44
57000;BME280;42891;50.006;21.964;2023-05-21T10:14:52;50900.50;;;-146.02;44.25
57000;BME280;42891;50.006;21.964;2023-05-21T10:18:53;50936.56;;;-146.02;44.20
57000;BME280;42891;50.006;21.964;2023-05-21T10:22:54;50942.56;;;-146.02;44.71
57000;BME280;42891;50.006;21.964;2023-05-21T10:26:56;50922.53;;;-146.02;45.04
57000;BME280;42891;50.006;21.964;2023-05-21T10:30:56;50896.50;;;-146.02;44.52
57000;BME280;42891;50.006;21.964;2023-05-21T10:34:58;50880.47;;;-146.02;44.49
57000;BME280;42891;50.006;21.964;2023-05-21T10:38:59;50916.53;;;-146.02;44.67
57000;BME280;42891;50.006;21.964;2023-05-21T10:56:23;50898.50;;;-146.02;46.82
57000;BME280;42891;50.006;21.964;2023-05-21T11:00:25;50944.59;;;-146.02;46.15
57000;BME280;42891;50.006;21.964;2023-05-21T11:04:27;50872.44;;;-146.02;45.86
57000;BME280;42891;50.006;21.964;2023-05-21T11:08:29;50920.53;;;-146.02;45.72
57000;BME280;42891;50.006;21.964;2023-05-21T11:12:33;50878.47;;;-146.02;45.36
57000;BME280;42891;50.006;21.964;2023-05-21T11:16:34;50904.50;;;-146.02;47.37
57000;BME280;42891;50.006;21.964;2023-05-21T11:20:35;50896.50;;;-146.02;46.56
57000;BME280;42891;50.006;21.964;2023-05-21T11:24:36;50898.50;;;-146.02;46.42
57000;BME280;42891;50.006;21.964;2023-05-21T11:28:39;50904.50;;;-146.02;45.83
57000;BME280;42891;50.006;21.964;2023-05-21T11:41:18;50886.47;;;-146.02;46.18
57000;BME280;42891;50.006;21.964;2023-05-21T11:45:21;50872.44;;;-146.02;45.24
57000;BME280;42891;50.006;21.964;2023-05-21T11:49:21;50934.56;;;-146.02;44.83
57000;BME280;42891;50.006;21.964;2023-05-21T11:53:22;50852.41;;;-146.02;44.22
57000;BME280;42891;50.006;21.964;2023-05-21T11:57:26;50876.44;;;-146.02;43.38
57000;BME280;42891;50.006;21.964;2023-05-21T12:01:29;50868.44;;;-146.02;43.27
57000;BME280;42891;50.006;21.964;2023-05-21T12:05:30;50892.47;;;-146.02;44.20
57000;BME280;42891;50.006;21.964;2023-05-21T12:09:30;50906.50;;;-146.02;41.93
57000;BME280;42891;50.006;21.964;2023-05-21T12:13:30;50866.44;;;-146.02;40.57
57000;BME280;42891;50.006;21.964;2023-05-21T12:17:31;50856.41;;;-146.02;40.84
57000;BME280;42891;50.006;21.964;2023-05-21T12:21:32;50842.38;;;-146.02;39.99
57000;BME280;42891;50.006;21.964;2023-05-21T12:25:32;50876.44;;;-146.02;40.96
57000;BME280;42891;50.006;21.964;2023-05-21T12:29:34;50858.41;;;-146.02;40.29
57000;BME280;42891;50.006;21.964;2023-05-21T12:33:35;50878.47;;;-146.02;39.54
57000;BME280;42891;50.006;21.964;2023-05-21T12:37:35;50876.44;;;-146.02;40.29
57000;BME280;42891;50.006;21.964;2023-05-21T12:41:36;50862.44;;;-146.02;39.05
57000;BME280;42891;50.006;21.964;2023-05-21T12:45:37;50850.41;;;-146.02;39.32
57000;BME280;42891;50.006;21.964;2023-05-21T12:49:42;50878.47;;;-146.02;38.49
57000;BME280;42891;50.006;21.964;2023-05-21T12:53:43;50852.41;;;-146.02;38.28
57000;BME280;42891;50.006;21.964;2023-05-21T12:57:44;50848.41;;;-146.02;38.21
57000;BME280;42891;50.006;21.964;2023-05-21T13:01:46;50842.38;;;-146.02;38.03
57000;BME280;42891;50.006;21.964;2023-05-21T13:05:47;50840.38;;;-146.02;37.84
57000;BME280;42891;50.006;21.964;2023-05-21T13:09:47;50818.34;;;-146.02;37.66
57000;BME280;42891;50.006;21.964;2023-05-21T13:13:49;50830.38;;;-146.02;37.42
57000;BME280;42891;50.006;21.964;2023-05-21T13:17:49;50854.41;;;-146.02;37.66
57000;BME280;42891;50.006;21.964;2023-05-21T13:21:49;50792.31;;;-146.02;36.99
57000;BME280;42891;50.006;21.964;2023-05-21T13:25:49;50834.38;;;-146.02;36.63
57000;BME280;42891;50.006;21.964;2023-05-21T13:29:50;50856.41;;;-146.02;35.47
57000;BME280;42891;50.006;21.964;2023-05-21T13:33:50;50830.38;;;-146.02;36.10
57000;BME280;42891;50.006;21.964;2023-05-21T13:37:51;50840.38;;;-146.02;35.27
57000;BME280;42891;50.006;21.964;2023-05-21T13:41:51;50814.34;;;-146.02;34.64
57000;BME280;42891;50.006;21.964;2023-05-21T13:45:51;50822.34;;;-146.02;35.31
57000;BME280;42891;50.006;21.964;2023-05-21T13:49:52;50822.34;;;-146.02;34.88
57000;BME280;42891;50.006;21.964;2023-05-21T13:53:52;50796.31;;;-146.02;34.74
57000;BME280;42891;50.006;21.964;2023-05-21T13:57:52;50858.41;;;-146.02;35.22
57000;BME280;42891;50.006;21.964;2023-05-21T14:01:53;50882.47;;;-146.02;34.99
57000;BME280;42891;50.006;21.964;2023-05-21T14:05:54;50820.34;;;-146.02;35.32
57000;BME280;42891;50.006;21.964;2023-05-21T14:09:54;50840.38;;;-146.02;35.24
57000;BME280;42891;50.006;21.964;2023-05-21T14:13:55;50824.34;;;-146.02;35.13
57000;BME280;42891;50.006;21.964;2023-05-21T14:17:56;50796.31;;;-146.02;35.25
57000;BME280;42891;50.006;21.964;2023-05-21T14:21:56;50844.41;;;-146.02;35.31
57000;BME280;42891;50.006;21.964;2023-05-21T14:25:58;50824.34;;;-146.02;35.11
57000;BME280;42891;50.006;21.964;2023-05-21T14:29:59;50776.28;;;-146.02;34.99
57000;BME280;42891;50.006;21.964;2023-05-21T14:33:59;50780.28;;;-146.02;34.66
57000;BME280;42891;50.006;21.964;2023-05-21T14:38:01;50820.34;;;-146.02;34.70
57000;BME280;42891;50.006;21.964;2023-05-21T14:42:03;50778.28;;;-146.02;34.47
57000;BME280;42891;50.006;21.964;2023-05-21T14:46:03;50776.28;;;-146.02;34.42
57000;BME280;42891;50.006;21.964;2023-05-21T14:50:04;50796.31;;;-146.02;34.76
57000;BME280;42891;50.006;21.964;2023-05-21T14:54:05;50824.34;;;-146.02;34.36
57000;BME280;42891;50.006;21.964;2023-05-21T14:58:06;50816.34;;;-146.02;34.41
57000;BME280;42891;50.006;21.964;2023-05-21T15:02:06;50826.38;;;-146.02;34.63
57000;BME280;42891;50.006;21.964;2023-05-21T15:06:06;50796.31;;;-146.02;34.52
57000;BME280;42891;50.006;21.964;2023-05-21T15:10:07;50782.28;;;-146.02;34.38
57000;BME280;42891;50.006;21.964;2023-05-21T15:14:08;50784.28;;;-146.02;34.18
57000;BME280;42891;50.006;21.964;2023-05-21T15:18:08;50730.19;;;-146.02;33.93
57000;BME280;42891;50.006;21.964;2023-05-21T15:22:08;50732.19;;;-146.02;33.22
57000;BME280;42891;50.006;21.964;2023-05-21T15:26:09;50756.22;;;-146.02;32.73
57000;BME280;42891;50.006;21.964;2023-05-21T15:30:10;50716.16;;;-146.02;32.14
57000;BME280;42891;50.006;21.964;2023-05-21T15:34:10;50702.13;;;-146.02;31.94
57000;BME280;42891;50.006;21.964;2023-05-21T15:38:12;50696.13;;;-146.02;31.03
57000;BME280;42891;50.006;21.964;2023-05-21T15:42:12;50682.09;;;-146.02;30.40
57000;BME280;42891;50.006;21.964;2023-05-21T15:46:13;50680.09;;;-146.02;30.33
57000;BME280;42891;50.006;21.964;2023-05-21T15:50:13;50668.06;;;-146.02;30.07
57000;BME280;42891;50.006;21.964;2023-05-21T15:54:15;50652.03;;;-146.02;30.33
57000;BME280;42891;50.006;21.964;2023-05-21T15:58:16;50680.09;;;-146.02;29.97
57000;BME280;42891;50.006;21.964;2023-05-21T16:02:16;50680.09;;;-146.02;30.10
57000;BME280;42891;50.006;21.964;2023-05-21T16:06:16;50650.03;;;-146.02;29.44
57000;BME280;42891;50.006;21.964;2023-05-21T16:10:17;50690.13;;;-146.02;29.85
57000;BME280;42891;50.006;21.964;2023-05-21T16:14:17;50738.19;;;-146.02;30.16
57000;BME280;42891;50.006;21.964;2023-05-21T16:18:17;50722.19;;;-146.02;30.17
57000;BME280;42891;50.006;21.964;2023-05-21T16:22:18;50728.19;;;-146.02;30.84
57000;BME280;42891;50.006;21.964;2023-05-21T16:26:22;50752.22;;;-146.02;31.11
57000;BME280;42891;50.006;21.964;2023-05-21T16:30:23;50748.22;;;-146.02;31.59
57000;BME280;42891;50.006;21.964;2023-05-21T16:34:23;50774.28;;;-146.02;31.94
57000;BME280;42891;50.006;21.964;2023-05-21T16:38:23;50738.19;;;-146.02;31.96
57000;BME280;42891;50.006;21.964;2023-05-21T16:42:24;50748.22;;;-146.02;32.60
57000;BME280;42891;50.006;21.964;2023-05-21T16:46:24;50748.22;;;-146.02;33.02
57000;BME280;42891;50.006;21.964;2023-05-21T16:50:25;50758.25;;;-146.02;32.94
57000;BME280;42891;50.006;21.964;2023-05-21T16:54:25;50776.28;;;-146.02;33.02
57000;BME280;42891;50.006;21.964;2023-05-21T16:58:26;50776.28;;;-146.02;33.14
57000;BME280;42891;50.006;21.964;2023-05-21T17:02:26;50798.31;;;-146.02;33.23
57000;BME280;42891;50.006;21.964;2023-05-21T17:06:26;50764.25;;;-146.02;33.87
57000;BME280;42891;50.006;21.964;2023-05-21T17:10:27;50772.25;;;-146.02;33.09
57000;BME280;42891;50.006;21.964;2023-05-21T17:14:28;50796.31;;;-146.02;33.99
57000;BME280;42891;50.006;21.964;2023-05-21T17:18:28;50792.31;;;-146.02;33.34
57000;BME280;42891;50.006;21.964;2023-05-21T17:22:30;50790.28;;;-146.02;33.43
57000;BME280;42891;50.006;21.964;2023-05-21T17:26:30;50796.31;;;-146.02;33.74
57000;BME280;42891;50.006;21.964;2023-05-21T17:30:30;50812.34;;;-146.02;33.57
57000;BME280;42891;50.006;21.964;2023-05-21T17:34:31;50814.34;;;-146.02;34.53
57000;BME280;42891;50.006;21.964;2023-05-21T17:38:31;50792.31;;;-146.02;34.56
57000;BME280;42891;50.006;21.964;2023-05-21T17:42:32;50792.31;;;-146.02;34.76
57000;BME280;42891;50.006;21.964;2023-05-21T17:46:32;50792.31;;;-146.02;34.48
57000;BME280;42891;50.006;21.964;2023-05-21T17:50:32;50814.34;;;-146.02;34.73
57000;BME280;42891;50.006;21.964;2023-05-21T17:54:33;50836.38;;;-146.02;35.04
57000;BME280;42891;50.006;21.964;2023-05-21T17:58:34;50820.34;;;-146.02;35.33
57000;BME280;42891;50.006;21.964;2023-05-21T18:02:34;50818.34;;;-146.02;35.54
57000;BME280;42891;50.006;21.964;2023-05-21T18:06:34;50816.34;;;-146.02;35.57
57000;BME280;42891;50.006;21.964;2023-05-21T18:10:35;50800.31;;;-146.02;36.28
57000;BME280;42891;50.006;21.964;2023-05-21T18:14:35;50844.41;;;-146.02;35.73
57000;BME280;42891;50.006;21.964;2023-05-21T18:18:35;50834.38;;;-146.02;35.82
57000;BME280;42891;50.006;21.964;2023-05-21T18:22:36;50808.34;;;-146.02;35.53
57000;BME280;42891;50.006;21.964;2023-05-21T18:26:36;50820.34;;;-146.02;35.73
57000;BME280;42891;50.006;21.964;2023-05-21T18:30:36;50776.28;;;-146.02;35.69
57000;BME280;42891;50.006;21.964;2023-05-21T18:34:37;50882.47;;;-146.02;36.04
57000;BME280;42891;50.006;21.964;2023-05-21T18:38:37;50834.38;;;-146.02;36.38
57000;BME280;42891;50.006;21.964;2023-05-21T18:42:38;50834.38;;;-146.02;36.32
57000;BME280;42891;50.006;21.964;2023-05-21T18:46:38;50856.41;;;-146.02;36.99
57000;BME280;42891;50.006;21.964;2023-05-21T18:50:38;50808.34;;;-146.02;37.37
57000;BME280;42891;50.006;21.964;2023-05-21T18:54:39;50836.38;;;-146.02;37.56
57000;BME280;42891;50.006;21.964;2023-05-21T18:58:39;50824.34;;;-146.02;37.88
57000;BME280;42891;50.006;21.964;2023-05-21T19:02:39;50868.44;;;-146.02;37.87
57000;BME280;42891;50.006;21.964;2023-05-21T19:06:40;50848.41;;;-146.02;38.17
57000;BME280;42891;50.006;21.964;2023-05-21T19:10:40;50818.34;;;-146.02;38.66
57000;BME280;42891;50.006;21.964;2023-05-21T19:14:41;50810.34;;;-146.02;38.54
57000;BME280;42891;50.006;21.964;2023-05-21T19:18:43;50892.47;;;-146.02;38.66
57000;BME280;42891;50.006;21.964;2023-05-21T19:22:44;50846.41;;;-146.02;38.68
57000;BME280;42891;50.006;21.964;2023-05-21T19:26:44;50864.44;;;-146.02;38.90
57000;BME280;42891;50.006;21.964;2023-05-21T19:30:45;50880.47;;;-146.02;39.42
57000;BME280;42891;50.006;21.964;2023-05-21T19:34:45;50834.38;;;-146.02;39.82
57000;BME280;42891;50.006;21.964;2023-05-21T19:38:46;50878.47;;;-146.02;39.78
57000;BME280;42891;50.006;21.964;2023-05-21T19:42:47;50862.44;;;-146.02;40.17
57000;BME280;42891;50.006;21.964;2023-05-21T19:46:47;50846.41;;;-146.02;40.15
57000;BME280;42891;50.006;21.964;2023-05-21T19:50:48;50852.41;;;-146.02;40.52
57000;BME280;42891;50.006;21.964;2023-05-21T19:54:49;50874.44;;;-146.02;40.64
57000;BME280;42891;50.006;21.964;2023-05-21T19:58:49;50876.44;;;-146.02;40.71
57000;BME280;42891;50.006;21.964;2023-05-21T20:02:49;50882.47;;;-146.02;40.58
57000;BME280;42891;50.006;21.964;2023-05-21T20:06:50;50858.41;;;-146.02;41.18
57000;BME280;42891;50.006;21.964;2023-05-21T20:10:51;50856.41;;;-146.02;40.72
57000;BME280;42891;50.006;21.964;2023-05-21T20:14:51;50892.47;;;-146.02;40.72
57000;BME280;42891;50.006;21.964;2023-05-21T20:18:53;50880.47;;;-146.02;41.05
57000;BME280;42891;50.006;21.964;2023-05-21T20:22:55;50864.44;;;-146.02;40.81
57000;BME280;42891;50.006;21.964;2023-05-21T20:26:56;50844.41;;;-146.02;41.20
57000;BME280;42891;50.006;21.964;2023-05-21T20:30:56;50840.38;;;-146.02;40.49
57000;BME280;42891;50.006;21.964;2023-05-21T20:34:57;50864.44;;;-146.02;41.00
57000;BME280;42891;50.006;21.964;2023-05-21T20:38:57;50868.44;;;-146.02;41.11
57000;BME280;42891;50.006;21.964;2023-05-21T20:43:00;50854.41;;;-146.02;40.63
57000;BME280;42891;50.006;21.964;2023-05-21T20:47:02;50876.44;;;-146.02;40.50
57000;BME280;42891;50.006;21.964;2023-05-21T20:51:03;50844.41;;;-146.02;40.51
57000;BME280;42891;50.006;21.964;2023-05-21T20:55:04;50870.44;;;-146.02;41.32